Williamstown, MA (01267)

4:20 AM EDT on July 31, 2016 (GMT -0400)
North Hoosac Rd | | Change Station

Elev 646 ft 42.72 °N, 73.19 °W | Updated 11 minutes ago

Overcast
Overcast
65.8 °F
Feels Like 65.8 °F
N
0.0
Wind Variable Wind from SE

Today
High -- | Low -- °F
--% Chance of Precip.
Yesterday
High -- | Low -- °F
Precip. -- in
Pressure 30.05 in
Visibility 9.0 miles
Clouds Few 300 ft
Mostly Cloudy 5000 ft
Overcast 6000 ft
Dew Point 65 °F
Humidity 96%
Rainfall 0.02 in
Snow Depth Not available.
5:43 AM 8:13 PM
Waning Crescent, 8% visible
METAR KAQW 310752Z AUTO 08003KT 9SM FEW003 BKN050 OVC060 19/18 A3006 RMK AO2 RAE01 SLP175 P0000 T01890178
Pressure 30.05 in
Visibility 9.0 miles
Clouds Few 300 ft
Mostly Cloudy 5000 ft
Overcast 6000 ft
Dew Point 65 °F
Humidity 96%
Rainfall 0.02 in
Snow Depth Not available.
5:43 AM 8:13 PM
Waning Crescent, 8% visible
METAR KAQW 310752Z AUTO 08003KT 9SM FEW003 BKN050 OVC060 19/18 A3006 RMK AO2 RAE01 SLP175 P0000 T01890178

10-Day Weather Forecast

Almanac

Astronomy

Jul. 31, 2016 Rise Set
Actual Time
Civil Twilight
Nautical Twilight
Astronomical Twilight
Moon
Length of Visible Light
Length of Day
Tomorrow will be .
, % of the Moon is Illuminated

Today's Extremes

State Highs State Lows

Community

WunderPhotos

Upload Photos

1,928,768 photos uploaded!

WunderBlog® & News

Nearby

Air Quality

  Air Quality AQ Index Pollutant
Not available.

Snow Depth

Station Depth Elevation

Earthquake Activity

City Distance Mag. Time & Date
Minimum magnitude displayed is 2.5.

Coastal Water Temperatures

Place Temperature

Stations

Nearby Weather Stations

Station Location Temp. Windchill Dew Point Humidity Wind Precip. Elev Updated Type
                   

Watches & Warnings

There are currently no watches in effect.